sensor_id;sensor_type;location;lat;lon;timestamp;P1;durP1;ratioP1;P2;durP2;ratioP2
57643;SDS011;43474;46.510;6.686;2023-03-12T00:00:38;272.25;;;258.65;;
57643;SDS011;43474;46.510;6.686;2023-03-12T00:03:24;283.45;;;269.27;;
57643;SDS011;43474;46.510;6.686;2023-03-12T00:05:50;284.42;;;269.77;;
57643;SDS011;43474;46.510;6.686;2023-03-12T00:08:15;278.33;;;264.15;;
57643;SDS011;43474;46.510;6.686;2023-03-12T00:10:41;272.52;;;259.10;;
57643;SDS011;43474;46.510;6.686;2023-03-12T00:13:07;273.45;;;259.77;;
57643;SDS011;43474;46.510;6.686;2023-03-12T00:15:38;277.80;;;263.60;;
57643;SDS011;43474;46.510;6.686;2023-03-12T00:18:04;285.98;;;271.65;;
57643;SDS011;43474;46.510;6.686;2023-03-12T00:20:30;284.75;;;270.40;;
57643;SDS011;43474;46.510;6.686;2023-03-12T00:22:56;288.73;;;274.08;;
57643;SDS011;43474;46.510;6.686;2023-03-12T00:25:21;293.50;;;278.55;;
57643;SDS011;43474;46.510;6.686;2023-03-12T00:27:47;289.20;;;274.70;;
57643;SDS011;43474;46.510;6.686;2023-03-12T00:30:13;285.35;;;270.95;;
57643;SDS011;43474;46.510;6.686;2023-03-12T00:32:38;285.92;;;271.25;;
57643;SDS011;43474;46.510;6.686;2023-03-12T00:35:05;293.02;;;277.92;;
57643;SDS011;43474;46.510;6.686;2023-03-12T00:37:31;294.92;;;280.08;;
57643;SDS011;43474;46.510;6.686;2023-03-12T00:39:57;299.52;;;284.38;;
57643;SDS011;43474;46.510;6.686;2023-03-12T00:42:26;294.63;;;279.60;;
57643;SDS011;43474;46.510;6.686;2023-03-12T00:44:52;299.88;;;284.73;;
57643;SDS011;43474;46.510;6.686;2023-03-12T00:47:17;293.48;;;278.35;;
57643;SDS011;43474;46.510;6.686;2023-03-12T00:49:43;295.52;;;280.48;;
57643;SDS011;43474;46.510;6.686;2023-03-12T00:52:09;302.90;;;287.65;;
57643;SDS011;43474;46.510;6.686;2023-03-12T00:54:34;291.75;;;276.50;;
57643;SDS011;43474;46.510;6.686;2023-03-12T00:57:00;295.05;;;279.92;;
57643;SDS011;43474;46.510;6.686;2023-03-12T00:59:26;300.52;;;284.80;;
57643;SDS011;43474;46.510;6.686;2023-03-12T01:01:51;302.13;;;286.75;;
57643;SDS011;43474;46.510;6.686;2023-03-12T01:04:17;304.65;;;288.45;;
57643;SDS011;43474;46.510;6.686;2023-03-12T01:06:42;299.55;;;284.38;;
57643;SDS011;43474;46.510;6.686;2023-03-12T01:09:08;304.02;;;288.50;;
57643;SDS011;43474;46.510;6.686;2023-03-12T01:11:34;301.55;;;285.98;;
57643;SDS011;43474;46.510;6.686;2023-03-12T01:14:01;296.20;;;280.90;;
57643;SDS011;43474;46.510;6.686;2023-03-12T01:16:28;306.30;;;290.75;;
57643;SDS011;43474;46.510;6.686;2023-03-12T01:18:58;308.83;;;293.13;;
57643;SDS011;43474;46.510;6.686;2023-03-12T01:21:26;311.48;;;295.13;;
57643;SDS011;43474;46.510;6.686;2023-03-12T01:23:52;307.00;;;290.80;;
57643;SDS011;43474;46.510;6.686;2023-03-12T01:26:18;321.63;;;305.10;;
57643;SDS011;43474;46.510;6.686;2023-03-12T01:28:43;317.30;;;300.90;;
57643;SDS011;43474;46.510;6.686;2023-03-12T01:31:10;316.23;;;299.73;;
57643;SDS011;43474;46.510;6.686;2023-03-12T01:33:38;315.55;;;299.23;;
57643;SDS011;43474;46.510;6.686;2023-03-12T01:36:04;327.90;;;310.73;;
57643;SDS011;43474;46.510;6.686;2023-03-12T01:38:39;324.52;;;308.00;;
57643;SDS011;43474;46.510;6.686;2023-03-12T01:41:05;327.30;;;310.40;;
57643;SDS011;43474;46.510;6.686;2023-03-12T01:43:34;322.63;;;305.92;;
57643;SDS011;43474;46.510;6.686;2023-03-12T01:46:04;323.67;;;306.85;;
57643;SDS011;43474;46.510;6.686;2023-03-12T01:48:35;324.15;;;307.38;;
57643;SDS011;43474;46.510;6.686;2023-03-12T01:51:06;324.08;;;307.08;;
57643;SDS011;43474;46.510;6.686;2023-03-12T01:53:34;321.67;;;305.20;;
57643;SDS011;43474;46.510;6.686;2023-03-12T01:56:02;329.08;;;311.52;;
57643;SDS011;43474;46.510;6.686;2023-03-12T01:58:29;324.42;;;307.35;;
57643;SDS011;43474;46.510;6.686;2023-03-12T02:00:57;327.55;;;310.55;;
57643;SDS011;43474;46.510;6.686;2023-03-12T02:03:23;339.83;;;321.77;;
57643;SDS011;43474;46.510;6.686;2023-03-12T02:05:54;333.58;;;316.33;;
57643;SDS011;43474;46.510;6.686;2023-03-12T02:08:24;322.58;;;306.05;;
57643;SDS011;43474;46.510;6.686;2023-03-12T02:10:50;329.77;;;312.88;;
57643;SDS011;43474;46.510;6.686;2023-03-12T02:13:16;319.48;;;303.25;;
57643;SDS011;43474;46.510;6.686;2023-03-12T02:15:43;320.20;;;303.70;;
57643;SDS011;43474;46.510;6.686;2023-03-12T02:18:10;321.00;;;304.10;;
57643;SDS011;43474;46.510;6.686;2023-03-12T02:26:16;320.58;;;304.02;;
57643;SDS011;43474;46.510;6.686;2023-03-12T02:28:45;329.63;;;312.85;;
57643;SDS011;43474;46.510;6.686;2023-03-12T02:31:15;360.50;;;341.75;;
57643;SDS011;43474;46.510;6.686;2023-03-12T02:33:44;335.48;;;318.00;;
57643;SDS011;43474;46.510;6.686;2023-03-12T02:36:10;337.10;;;319.58;;
57643;SDS011;43474;46.510;6.686;2023-03-12T02:38:37;333.67;;;316.40;;
57643;SDS011;43474;46.510;6.686;2023-03-12T02:41:19;328.95;;;311.95;;
57643;SDS011;43474;46.510;6.686;2023-03-12T02:44:30;326.02;;;309.33;;
57643;SDS011;43474;46.510;6.686;2023-03-12T02:46:42;321.40;;;304.77;;
57643;SDS011;43474;46.510;6.686;2023-03-12T02:49:10;333.05;;;315.90;;
57643;SDS011;43474;46.510;6.686;2023-03-12T02:51:39;324.65;;;307.92;;
57643;SDS011;43474;46.510;6.686;2023-03-12T02:54:06;327.40;;;310.05;;
57643;SDS011;43474;46.510;6.686;2023-03-12T02:56:33;329.13;;;311.85;;
57643;SDS011;43474;46.510;6.686;2023-03-12T02:58:59;327.75;;;310.95;;
57643;SDS011;43474;46.510;6.686;2023-03-12T03:01:25;335.08;;;317.77;;
57643;SDS011;43474;46.510;6.686;2023-03-12T03:03:51;326.83;;;310.40;;
57643;SDS011;43474;46.510;6.686;2023-03-12T03:06:17;329.23;;;312.75;;
57643;SDS011;43474;46.510;6.686;2023-03-12T03:08:43;338.13;;;320.92;;
57643;SDS011;43474;46.510;6.686;2023-03-12T03:11:09;342.25;;;324.85;;
57643;SDS011;43474;46.510;6.686;2023-03-12T03:13:35;348.65;;;330.92;;
57643;SDS011;43474;46.510;6.686;2023-03-12T03:16:01;353.42;;;335.38;;
57643;SDS011;43474;46.510;6.686;2023-03-12T03:18:28;359.23;;;340.60;;
57643;SDS011;43474;46.510;6.686;2023-03-12T03:20:55;351.80;;;333.67;;
57643;SDS011;43474;46.510;6.686;2023-03-12T03:23:21;352.30;;;333.90;;
57643;SDS011;43474;46.510;6.686;2023-03-12T03:25:47;364.90;;;345.90;;
57643;SDS011;43474;46.510;6.686;2023-03-12T03:28:13;341.73;;;324.13;;
57643;SDS011;43474;46.510;6.686;2023-03-12T03:30:38;342.33;;;324.75;;
57643;SDS011;43474;46.510;6.686;2023-03-12T03:33:04;330.77;;;313.30;;
57643;SDS011;43474;46.510;6.686;2023-03-12T03:35:30;322.65;;;305.48;;
57643;SDS011;43474;46.510;6.686;2023-03-12T03:37:55;316.17;;;299.90;;
57643;SDS011;43474;46.510;6.686;2023-03-12T03:40:21;326.23;;;308.98;;
57643;SDS011;43474;46.510;6.686;2023-03-12T03:42:46;316.27;;;299.60;;
57643;SDS011;43474;46.510;6.686;2023-03-12T03:45:12;318.85;;;302.23;;
57643;SDS011;43474;46.510;6.686;2023-03-12T03:47:37;315.50;;;298.67;;
57643;SDS011;43474;46.510;6.686;2023-03-12T03:50:04;318.55;;;301.60;;
57643;SDS011;43474;46.510;6.686;2023-03-12T03:52:30;327.48;;;310.08;;
57643;SDS011;43474;46.510;6.686;2023-03-12T03:54:57;334.63;;;316.58;;
57643;SDS011;43474;46.510;6.686;2023-03-12T03:57:23;337.13;;;319.58;;
57643;SDS011;43474;46.510;6.686;2023-03-12T03:59:50;332.33;;;315.45;;
57643;SDS011;43474;46.510;6.686;2023-03-12T04:02:15;347.20;;;329.50;;
57643;SDS011;43474;46.510;6.686;2023-03-12T04:04:43;358.30;;;339.88;;
57643;SDS011;43474;46.510;6.686;2023-03-12T04:07:08;359.30;;;340.65;;
57643;SDS011;43474;46.510;6.686;2023-03-12T04:09:35;354.38;;;336.08;;
57643;SDS011;43474;46.510;6.686;2023-03-12T04:12:00;358.73;;;340.20;;
57643;SDS011;43474;46.510;6.686;2023-03-12T04:14:26;355.58;;;337.08;;
57643;SDS011;43474;46.510;6.686;2023-03-12T04:16:52;355.73;;;337.45;;
57643;SDS011;43474;46.510;6.686;2023-03-12T04:19:18;357.27;;;338.95;;
57643;SDS011;43474;46.510;6.686;2023-03-12T04:21:43;359.80;;;340.98;;
57643;SDS011;43474;46.510;6.686;2023-03-12T04:24:12;367.40;;;347.92;;
57643;SDS011;43474;46.510;6.686;2023-03-12T04:26:39;371.83;;;352.60;;
57643;SDS011;43474;46.510;6.686;2023-03-12T04:29:05;370.60;;;351.50;;
57643;SDS011;43474;46.510;6.686;2023-03-12T04:31:31;376.00;;;356.55;;
57643;SDS011;43474;46.510;6.686;2023-03-12T04:33:57;384.92;;;365.05;;
57643;SDS011;43474;46.510;6.686;2023-03-12T04:36:23;377.42;;;357.85;;
57643;SDS011;43474;46.510;6.686;2023-03-12T04:38:49;389.35;;;369.00;;
57643;SDS011;43474;46.510;6.686;2023-03-12T04:41:14;400.08;;;379.38;;
57643;SDS011;43474;46.510;6.686;2023-03-12T04:43:41;401.00;;;379.92;;
57643;SDS011;43474;46.510;6.686;2023-03-12T04:46:08;399.58;;;379.17;;
57643;SDS011;43474;46.510;6.686;2023-03-12T04:48:34;407.27;;;386.35;;
57643;SDS011;43474;46.510;6.686;2023-03-12T04:51:01;403.05;;;382.02;;
57643;SDS011;43474;46.510;6.686;2023-03-12T04:53:29;404.52;;;383.48;;
57643;SDS011;43474;46.510;6.686;2023-03-12T04:55:55;415.63;;;394.23;;
57643;SDS011;43474;46.510;6.686;2023-03-12T04:58:21;417.75;;;396.30;;
57643;SDS011;43474;46.510;6.686;2023-03-12T05:00:47;422.40;;;400.60;;
57643;SDS011;43474;46.510;6.686;2023-03-12T05:03:14;426.45;;;404.42;;
57643;SDS011;43474;46.510;6.686;2023-03-12T05:05:39;428.55;;;406.25;;
57643;SDS011;43474;46.510;6.686;2023-03-12T05:08:05;425.45;;;403.38;;
57643;SDS011;43474;46.510;6.686;2023-03-12T05:10:30;435.52;;;412.85;;
57643;SDS011;43474;46.510;6.686;2023-03-12T05:12:57;448.27;;;424.52;;
57643;SDS011;43474;46.510;6.686;2023-03-12T05:15:23;449.05;;;425.65;;
57643;SDS011;43474;46.510;6.686;2023-03-12T05:17:48;451.98;;;428.35;;
57643;SDS011;43474;46.510;6.686;2023-03-12T05:20:14;461.63;;;437.40;;
57643;SDS011;43474;46.510;6.686;2023-03-12T05:22:42;464.45;;;440.13;;
57643;SDS011;43474;46.510;6.686;2023-03-12T05:25:07;469.35;;;444.70;;
57643;SDS011;43474;46.510;6.686;2023-03-12T05:27:34;477.15;;;451.65;;
57643;SDS011;43474;46.510;6.686;2023-03-12T05:29:59;480.55;;;455.15;;
57643;SDS011;43474;46.510;6.686;2023-03-12T05:32:25;491.83;;;465.42;;
57643;SDS011;43474;46.510;6.686;2023-03-12T05:34:50;486.40;;;460.75;;
57643;SDS011;43474;46.510;6.686;2023-03-12T05:37:16;491.67;;;465.65;;
57643;SDS011;43474;46.510;6.686;2023-03-12T05:39:41;494.13;;;468.00;;
57643;SDS011;43474;46.510;6.686;2023-03-12T05:42:11;498.83;;;472.33;;
57643;SDS011;43474;46.510;6.686;2023-03-12T05:44:37;498.08;;;471.45;;
57643;SDS011;43474;46.510;6.686;2023-03-12T05:47:03;500.63;;;474.30;;
57643;SDS011;43474;46.510;6.686;2023-03-12T05:49:29;500.88;;;474.42;;
57643;SDS011;43474;46.510;6.686;2023-03-12T05:51:55;502.95;;;476.30;;
57643;SDS011;43474;46.510;6.686;2023-03-12T05:54:20;503.80;;;477.10;;
57643;SDS011;43474;46.510;6.686;2023-03-12T05:56:47;508.90;;;481.90;;
57643;SDS011;43474;46.510;6.686;2023-03-12T05:59:12;512.63;;;485.50;;
57643;SDS011;43474;46.510;6.686;2023-03-12T06:01:38;513.72;;;486.17;;
57643;SDS011;43474;46.510;6.686;2023-03-12T06:04:05;518.00;;;490.15;;
57643;SDS011;43474;46.510;6.686;2023-03-12T06:06:31;523.03;;;495.05;;
57643;SDS011;43474;46.510;6.686;2023-03-12T06:08:57;528.25;;;500.08;;
57643;SDS011;43474;46.510;6.686;2023-03-12T06:11:23;526.72;;;498.35;;
57643;SDS011;43474;46.510;6.686;2023-03-12T06:13:48;528.53;;;500.27;;
57643;SDS011;43474;46.510;6.686;2023-03-12T06:16:17;531.45;;;502.88;;
57643;SDS011;43474;46.510;6.686;2023-03-12T06:18:45;538.55;;;509.70;;
57643;SDS011;43474;46.510;6.686;2023-03-12T06:21:12;537.42;;;508.50;;
57643;SDS011;43474;46.510;6.686;2023-03-12T06:23:42;531.88;;;503.23;;
57643;SDS011;43474;46.510;6.686;2023-03-12T06:26:09;536.55;;;507.55;;
57643;SDS011;43474;46.510;6.686;2023-03-12T06:28:35;540.70;;;511.45;;
57643;SDS011;43474;46.510;6.686;2023-03-12T06:31:02;536.83;;;507.52;;
57643;SDS011;43474;46.510;6.686;2023-03-12T06:33:28;543.00;;;513.58;;
57643;SDS011;43474;46.510;6.686;2023-03-12T06:35:55;543.00;;;513.75;;
57643;SDS011;43474;46.510;6.686;2023-03-12T06:38:22;547.53;;;517.72;;
57643;SDS011;43474;46.510;6.686;2023-03-12T06:40:59;544.08;;;514.50;;
57643;SDS011;43474;46.510;6.686;2023-03-12T06:43:27;540.25;;;510.80;;
57643;SDS011;43474;46.510;6.686;2023-03-12T06:45:55;542.95;;;513.70;;
57643;SDS011;43474;46.510;6.686;2023-03-12T06:48:22;545.92;;;515.92;;
57643;SDS011;43474;46.510;6.686;2023-03-12T06:50:48;538.58;;;509.30;;
57643;SDS011;43474;46.510;6.686;2023-03-12T06:53:14;539.35;;;510.15;;
57643;SDS011;43474;46.510;6.686;2023-03-12T06:55:41;534.47;;;505.30;;
57643;SDS011;43474;46.510;6.686;2023-03-12T06:58:07;533.25;;;503.98;;
57643;SDS011;43474;46.510;6.686;2023-03-12T07:00:33;533.58;;;504.10;;
57643;SDS011;43474;46.510;6.686;2023-03-12T07:02:59;532.83;;;503.48;;
57643;SDS011;43474;46.510;6.686;2023-03-12T07:05:25;532.28;;;503.35;;
57643;SDS011;43474;46.510;6.686;2023-03-12T07:07:50;532.30;;;503.23;;
57643;SDS011;43474;46.510;6.686;2023-03-12T07:10:16;537.05;;;507.60;;
57643;SDS011;43474;46.510;6.686;2023-03-12T07:12:42;532.45;;;503.42;;
57643;SDS011;43474;46.510;6.686;2023-03-12T07:15:08;539.03;;;509.70;;
57643;SDS011;43474;46.510;6.686;2023-03-12T07:17:34;552.08;;;522.00;;
57643;SDS011;43474;46.510;6.686;2023-03-12T07:20:00;542.35;;;512.65;;
57643;SDS011;43474;46.510;6.686;2023-03-12T07:22:26;538.42;;;509.02;;
57643;SDS011;43474;46.510;6.686;2023-03-12T07:24:53;540.08;;;511.17;;
57643;SDS011;43474;46.510;6.686;2023-03-12T07:27:18;538.75;;;509.52;;
57643;SDS011;43474;46.510;6.686;2023-03-12T07:29:44;541.42;;;512.17;;
57643;SDS011;43474;46.510;6.686;2023-03-12T07:32:10;556.95;;;526.72;;
57643;SDS011;43474;46.510;6.686;2023-03-12T07:34:35;540.17;;;510.83;;
57643;SDS011;43474;46.510;6.686;2023-03-12T07:37:01;534.85;;;505.58;;
57643;SDS011;43474;46.510;6.686;2023-03-12T07:39:27;531.15;;;502.08;;
57643;SDS011;43474;46.510;6.686;2023-03-12T07:41:53;536.33;;;507.02;;
57643;SDS011;43474;46.510;6.686;2023-03-12T07:44:19;528.53;;;499.90;;
57643;SDS011;43474;46.510;6.686;2023-03-12T07:46:44;529.33;;;500.65;;
57643;SDS011;43474;46.510;6.686;2023-03-12T07:49:10;523.95;;;495.70;;
57643;SDS011;43474;46.510;6.686;2023-03-12T07:51:36;518.42;;;490.35;;
57643;SDS011;43474;46.510;6.686;2023-03-12T07:54:01;515.08;;;487.25;;
57643;SDS011;43474;46.510;6.686;2023-03-12T07:56:27;520.35;;;492.13;;
57643;SDS011;43474;46.510;6.686;2023-03-12T07:58:53;517.22;;;489.42;;
57643;SDS011;43474;46.510;6.686;2023-03-12T08:01:19;509.60;;;482.33;;
57643;SDS011;43474;46.510;6.686;2023-03-12T08:03:45;510.60;;;482.60;;
57643;SDS011;43474;46.510;6.686;2023-03-12T08:06:10;505.77;;;478.40;;
57643;SDS011;43474;46.510;6.686;2023-03-12T08:08:36;507.35;;;480.52;;
57643;SDS011;43474;46.510;6.686;2023-03-12T08:11:06;507.45;;;480.75;;
57643;SDS011;43474;46.510;6.686;2023-03-12T08:13:32;506.77;;;479.92;;
57643;SDS011;43474;46.510;6.686;2023-03-12T08:15:58;504.90;;;478.20;;
57643;SDS011;43474;46.510;6.686;2023-03-12T08:18:24;506.15;;;479.58;;
57643;SDS011;43474;46.510;6.686;2023-03-12T08:20:51;500.58;;;474.58;;
57643;SDS011;43474;46.510;6.686;2023-03-12T08:23:18;494.33;;;468.65;;
57643;SDS011;43474;46.510;6.686;2023-03-12T08:25:45;490.65;;;465.33;;
57643;SDS011;43474;46.510;6.686;2023-03-12T08:28:12;496.90;;;471.15;;
57643;SDS011;43474;46.510;6.686;2023-03-12T08:30:37;483.88;;;458.98;;
57643;SDS011;43474;46.510;6.686;2023-03-12T08:33:03;479.08;;;454.63;;
57643;SDS011;43474;46.510;6.686;2023-03-12T08:35:28;472.25;;;448.13;;
57643;SDS011;43474;46.510;6.686;2023-03-12T08:37:54;471.95;;;447.95;;
57643;SDS011;43474;46.510;6.686;2023-03-12T08:40:21;472.48;;;448.63;;
57643;SDS011;43474;46.510;6.686;2023-03-12T08:42:48;455.73;;;432.83;;
57643;SDS011;43474;46.510;6.686;2023-03-12T08:45:14;451.85;;;429.13;;
57643;SDS011;43474;46.510;6.686;2023-03-12T08:47:41;441.80;;;419.45;;
57643;SDS011;43474;46.510;6.686;2023-03-12T08:50:08;443.10;;;420.90;;
57643;SDS011;43474;46.510;6.686;2023-03-12T08:52:35;438.80;;;416.67;;
57643;SDS011;43474;46.510;6.686;2023-03-12T08:55:01;436.65;;;414.67;;
57643;SDS011;43474;46.510;6.686;2023-03-12T08:57:27;433.75;;;412.02;;
57643;SDS011;43474;46.510;6.686;2023-03-12T08:59:53;417.58;;;396.73;;
57643;SDS011;43474;46.510;6.686;2023-03-12T09:02:18;415.63;;;394.95;;
57643;SDS011;43474;46.510;6.686;2023-03-12T09:04:46;404.02;;;383.98;;
57643;SDS011;43474;46.510;6.686;2023-03-12T09:07:13;429.73;;;408.10;;
57643;SDS011;43474;46.510;6.686;2023-03-12T09:09:38;404.83;;;384.55;;
57643;SDS011;43474;46.510;6.686;2023-03-12T09:12:04;386.23;;;367.02;;
57643;SDS011;43474;46.510;6.686;2023-03-12T09:14:30;387.33;;;368.33;;
57643;SDS011;43474;46.510;6.686;2023-03-12T09:16:56;367.67;;;349.88;;
57643;SDS011;43474;46.510;6.686;2023-03-12T09:19:22;371.48;;;353.60;;
57643;SDS011;43474;46.510;6.686;2023-03-12T09:21:48;337.13;;;321.30;;
57643;SDS011;43474;46.510;6.686;2023-03-12T09:24:13;320.42;;;305.70;;
57643;SDS011;43474;46.510;6.686;2023-03-12T09:26:39;271.05;;;258.90;;
57643;SDS011;43474;46.510;6.686;2023-03-12T09:29:04;253.35;;;241.90;;
57643;SDS011;43474;46.510;6.686;2023-03-12T09:31:30;221.75;;;211.88;;
57643;SDS011;43474;46.510;6.686;2023-03-12T09:33:55;222.25;;;212.43;;
57643;SDS011;43474;46.510;6.686;2023-03-12T09:36:21;208.93;;;199.63;;
57643;SDS011;43474;46.510;6.686;2023-03-12T09:38:47;172.20;;;164.05;;
57643;SDS011;43474;46.510;6.686;2023-03-12T09:41:17;205.88;;;196.60;;
57643;SDS011;43474;46.510;6.686;2023-03-12T09:43:46;216.00;;;206.35;;
57643;SDS011;43474;46.510;6.686;2023-03-12T09:46:20;228.82;;;218.65;;
57643;SDS011;43474;46.510;6.686;2023-03-12T09:48:49;223.35;;;213.35;;
57643;SDS011;43474;46.510;6.686;2023-03-12T09:51:23;151.60;;;144.75;;
57643;SDS011;43474;46.510;6.686;2023-03-12T09:54:22;108.28;;;103.47;;
57643;SDS011;43474;46.510;6.686;2023-03-12T09:56:56;134.32;;;128.35;;
57643;SDS011;43474;46.510;6.686;2023-03-12T09:59:24;43.22;;;40.92;;
57643;SDS011;43474;46.510;6.686;2023-03-12T10:01:52;58.80;;;56.03;;
57643;SDS011;43474;46.510;6.686;2023-03-12T10:04:37;9.88;;;9.07;;
57643;SDS011;43474;46.510;6.686;2023-03-12T10:13:06;192.48;;;183.75;;
57643;SDS011;43474;46.510;6.686;2023-03-12T10:24:37;206.68;;;197.35;;
57643;SDS011;43474;46.510;6.686;2023-03-12T10:27:34;120.32;;;115.05;;
57643;SDS011;43474;46.510;6.686;2023-03-12T10:30:12;165.35;;;157.90;;
57643;SDS011;43474;46.510;6.686;2023-03-12T10:32:49;188.77;;;180.25;;
57643;SDS011;43474;46.510;6.686;2023-03-12T10:35:23;206.77;;;197.57;;
57643;SDS011;43474;46.510;6.686;2023-03-12T10:40:23;204.82;;;195.60;;
57643;SDS011;43474;46.510;6.686;2023-03-12T10:42:51;214.07;;;204.45;;
57643;SDS011;43474;46.510;6.686;2023-03-12T10:45:20;181.90;;;173.65;;
57643;SDS011;43474;46.510;6.686;2023-03-12T10:48:03;171.88;;;164.02;;
57643;SDS011;43474;46.510;6.686;2023-03-12T10:53:20;179.02;;;171.02;;
57643;SDS011;43474;46.510;6.686;2023-03-12T10:56:02;152.93;;;146.20;;
57643;SDS011;43474;46.510;6.686;2023-03-12T10:58:45;155.70;;;148.88;;
57643;SDS011;43474;46.510;6.686;2023-03-12T11:03:51;164.20;;;156.80;;
57643;SDS011;43474;46.510;6.686;2023-03-12T11:06:31;117.45;;;112.20;;
57643;SDS011;43474;46.510;6.686;2023-03-12T11:09:03;74.47;;;70.95;;
57643;SDS011;43474;46.510;6.686;2023-03-12T11:11:32;81.93;;;78.38;;
57643;SDS011;43474;46.510;6.686;2023-03-12T11:14:32;72.43;;;69.22;;
57643;SDS011;43474;46.510;6.686;2023-03-12T11:16:53;117.65;;;112.50;;
57643;SDS011;43474;46.510;6.686;2023-03-12T11:21:57;102.47;;;97.95;;
57643;SDS011;43474;46.510;6.686;2023-03-12T11:24:23;64.28;;;61.55;;
57643;SDS011;43474;46.510;6.686;2023-03-12T11:27:05;58.35;;;55.75;;
57643;SDS011;43474;46.510;6.686;2023-03-12T11:29:51;69.63;;;66.55;;
57643;SDS011;43474;46.510;6.686;2023-03-12T11:32:22;54.50;;;52.10;;
57643;SDS011;43474;46.510;6.686;2023-03-12T11:34:55;65.72;;;62.78;;
57643;SDS011;43474;46.510;6.686;2023-03-12T11:42:36;47.28;;;45.13;;
57643;SDS011;43474;46.510;6.686;2023-03-12T11:45:22;58.55;;;55.72;;
57643;SDS011;43474;46.510;6.686;2023-03-12T11:50:36;52.95;;;50.58;;
57643;SDS011;43474;46.510;6.686;2023-03-12T11:53:28;57.63;;;55.13;;
57643;SDS011;43474;46.510;6.686;2023-03-12T11:58:52;47.53;;;45.28;;
57643;SDS011;43474;46.510;6.686;2023-03-12T12:01:43;33.22;;;31.67;;
57643;SDS011;43474;46.510;6.686;2023-03-12T12:15:57;9.18;;;8.55;;
57643;SDS011;43474;46.510;6.686;2023-03-12T12:21:06;8.88;;;8.27;;
57643;SDS011;43474;46.510;6.686;2023-03-12T12:26:38;7.70;;;7.07;;
57643;SDS011;43474;46.510;6.686;2023-03-12T12:29:15;9.38;;;8.82;;
57643;SDS011;43474;46.510;6.686;2023-03-12T12:32:05;3.90;;;3.65;;
57643;SDS011;43474;46.510;6.686;2023-03-12T12:34:47;5.82;;;3.60;;
57643;SDS011;43474;46.510;6.686;2023-03-12T12:40:24;7.15;;;3.95;;
57643;SDS011;43474;46.510;6.686;2023-03-12T12:42:57;5.57;;;3.75;;
57643;SDS011;43474;46.510;6.686;2023-03-12T12:45:28;4.20;;;3.45;;
57643;SDS011;43474;46.510;6.686;2023-03-12T12:50:31;4.35;;;3.85;;
57643;SDS011;43474;46.510;6.686;2023-03-12T12:53:12;8.90;;;3.40;;
57643;SDS011;43474;46.510;6.686;2023-03-12T12:55:48;3.03;;;2.60;;
57643;SDS011;43474;46.510;6.686;2023-03-12T12:58:42;4.97;;;2.88;;
57643;SDS011;43474;46.510;6.686;2023-03-12T13:01:17;6.32;;;3.10;;
57643;SDS011;43474;46.510;6.686;2023-03-12T13:03:44;6.20;;;3.50;;
57643;SDS011;43474;46.510;6.686;2023-03-12T13:06:11;5.40;;;3.00;;
57643;SDS011;43474;46.510;6.686;2023-03-12T13:14:22;6.15;;;2.90;;
57643;SDS011;43474;46.510;6.686;2023-03-12T13:16:31;4.90;;;2.60;;
57643;SDS011;43474;46.510;6.686;2023-03-12T13:19:20;4.03;;;2.83;;
57643;SDS011;43474;46.510;6.686;2023-03-12T13:24:52;5.88;;;2.90;;
57643;SDS011;43474;46.510;6.686;2023-03-12T13:27:24;3.65;;;2.38;;
57643;SDS011;43474;46.510;6.686;2023-03-12T13:29:54;4.50;;;2.70;;
57643;SDS011;43474;46.510;6.686;2023-03-12T13:40:53;2.85;;;2.50;;
57643;SDS011;43474;46.510;6.686;2023-03-12T13:50:47;5.30;;;2.35;;
57643;SDS011;43474;46.510;6.686;2023-03-12T13:53:19;3.50;;;2.05;;
57643;SDS011;43474;46.510;6.686;2023-03-12T13:55:48;2.42;;;2.22;;
57643;SDS011;43474;46.510;6.686;2023-03-12T13:58:25;3.78;;;2.60;;
57643;SDS011;43474;46.510;6.686;2023-03-12T14:01:02;3.92;;;1.95;;
57643;SDS011;43474;46.510;6.686;2023-03-12T14:03:31;2.70;;;1.83;;
57643;SDS011;43474;46.510;6.686;2023-03-12T14:16:50;4.43;;;2.33;;
57643;SDS011;43474;46.510;6.686;2023-03-12T14:19:26;2.42;;;2.22;;
57643;SDS011;43474;46.510;6.686;2023-03-12T14:21:59;2.45;;;2.30;;
57643;SDS011;43474;46.510;6.686;2023-03-12T14:24:37;2.95;;;1.80;;
57643;SDS011;43474;46.510;6.686;2023-03-12T14:27:14;2.30;;;1.90;;
57643;SDS011;43474;46.510;6.686;2023-03-12T14:29:45;3.53;;;2.10;;
57643;SDS011;43474;46.510;6.686;2023-03-12T14:32:21;3.05;;;1.95;;
57643;SDS011;43474;46.510;6.686;2023-03-12T14:37:54;3.40;;;2.50;;
57643;SDS011;43474;46.510;6.686;2023-03-12T14:40:25;4.57;;;2.50;;
57643;SDS011;43474;46.510;6.686;2023-03-12T14:43:01;5.43;;;2.63;;
57643;SDS011;43474;46.510;6.686;2023-03-12T14:45:26;4.05;;;2.25;;
57643;SDS011;43474;46.510;6.686;2023-03-12T14:47:53;3.50;;;2.13;;
57643;SDS011;43474;46.510;6.686;2023-03-12T14:50:23;7.10;;;2.95;;
57643;SDS011;43474;46.510;6.686;2023-03-12T14:52:51;4.40;;;2.50;;
57643;SDS011;43474;46.510;6.686;2023-03-12T14:55:21;4.15;;;2.85;;
57643;SDS011;43474;46.510;6.686;2023-03-12T14:58:01;3.08;;;2.75;;
57643;SDS011;43474;46.510;6.686;2023-03-12T15:00:27;3.72;;;2.42;;
57643;SDS011;43474;46.510;6.686;2023-03-12T15:02:53;3.17;;;2.38;;
57643;SDS011;43474;46.510;6.686;2023-03-12T15:05:21;4.57;;;2.95;;
57643;SDS011;43474;46.510;6.686;2023-03-12T15:07:48;2.47;;;2.28;;
57643;SDS011;43474;46.510;6.686;2023-03-12T15:10:20;4.75;;;2.70;;
57643;SDS011;43474;46.510;6.686;2023-03-12T15:12:48;3.17;;;2.70;;
57643;SDS011;43474;46.510;6.686;2023-03-12T15:16:01;4.32;;;2.55;;
57643;SDS011;43474;46.510;6.686;2023-03-12T15:18:11;4.43;;;3.00;;
57643;SDS011;43474;46.510;6.686;2023-03-12T15:20:39;5.20;;;2.35;;
57643;SDS011;43474;46.510;6.686;2023-03-12T15:23:05;3.08;;;2.70;;
57643;SDS011;43474;46.510;6.686;2023-03-12T15:25:34;3.00;;;2.63;;
57643;SDS011;43474;46.510;6.686;2023-03-12T15:28:21;2.67;;;2.25;;
57643;SDS011;43474;46.510;6.686;2023-03-12T15:33:58;3.50;;;3.00;;
57643;SDS011;43474;46.510;6.686;2023-03-12T15:36:26;3.42;;;3.13;;
57643;SDS011;43474;46.510;6.686;2023-03-12T15:38:54;4.65;;;2.85;;
57643;SDS011;43474;46.510;6.686;2023-03-12T15:41:25;5.10;;;3.28;;
57643;SDS011;43474;46.510;6.686;2023-03-12T15:43:56;2.40;;;2.20;;
57643;SDS011;43474;46.510;6.686;2023-03-12T15:46:24;4.43;;;2.70;;
57643;SDS011;43474;46.510;6.686;2023-03-12T15:48:55;2.75;;;2.28;;
57643;SDS011;43474;46.510;6.686;2023-03-12T15:51:31;3.55;;;2.20;;
57643;SDS011;43474;46.510;6.686;2023-03-12T15:53:59;2.28;;;2.10;;
57643;SDS011;43474;46.510;6.686;2023-03-12T15:56:37;6.10;;;2.45;;
57643;SDS011;43474;46.510;6.686;2023-03-12T16:01:44;6.65;;;6.05;;
57643;SDS011;43474;46.510;6.686;2023-03-12T16:04:10;5.18;;;2.30;;
57643;SDS011;43474;46.510;6.686;2023-03-12T16:06:36;3.15;;;2.40;;